createdAt,value
2022-08-09T00:00:04.666Z,1031.28
2022-08-09T00:10:00.107Z,1031.32
2022-08-09T00:20:00.148Z,1031.28
2022-08-09T00:30:10.614Z,1031.32
2022-08-09T00:40:00.104Z,1031.28
2022-08-09T00:50:00.135Z,1031.28
2022-08-09T01:00:00.712Z,1031.30
2022-08-09T01:10:01.672Z,1031.25
2022-08-09T01:20:02.071Z,1031.23
2022-08-09T01:30:00.106Z,1031.30
2022-08-09T01:40:00.111Z,1031.19
2022-08-09T01:50:00.134Z,1031.33
2022-08-09T02:00:08.875Z,1031.32
2022-08-09T02:10:01.335Z,1031.33
2022-08-09T02:20:01.168Z,1031.34
2022-08-09T02:30:01.648Z,1031.34
2022-08-09T02:40:02.967Z,1031.41
2022-08-09T02:50:01.391Z,1031.45
2022-08-09T03:00:11.527Z,1031.44
2022-08-09T03:10:00.433Z,1031.49
2022-08-09T03:20:02.849Z,1031.49
2022-08-09T03:30:01.154Z,1031.52
2022-08-09T03:40:00.241Z,1031.53
2022-08-09T03:50:00.141Z,1031.60
2022-08-09T04:00:00.675Z,1031.64
2022-08-09T04:10:00.141Z,1031.70
2022-08-09T04:20:02.483Z,1031.77
2022-08-09T04:30:00.083Z,1031.90
2022-08-09T04:40:00.127Z,1031.91
2022-08-09T04:50:00.136Z,1031.96
2022-08-09T05:00:00.115Z,1032.09
2022-08-09T05:10:01.666Z,1032.18
2022-08-09T05:20:00.110Z,1032.21
2022-08-09T05:30:00.093Z,1032.28
2022-08-09T05:40:00.237Z,1032.33
2022-08-09T05:50:14.887Z,1032.40
2022-08-09T06:00:00.149Z,1032.45
2022-08-09T06:10:01.870Z,1032.44
2022-08-09T06:20:00.136Z,1032.52
2022-08-09T06:30:04.780Z,1032.60
2022-08-09T06:40:01.899Z,1032.74
2022-08-09T06:50:12.458Z,1032.77
2022-08-09T07:00:48.427Z,1032.70
2022-08-09T07:10:12.766Z,1032.83
2022-08-09T07:20:00.205Z,1032.91
2022-08-09T07:30:00.198Z,1032.95
2022-08-09T07:40:00.186Z,1032.93
2022-08-09T07:50:05.674Z,1032.95
2022-08-09T08:00:03.297Z,1032.92
2022-08-09T08:10:07.486Z,1032.95
2022-08-09T08:20:00.105Z,1032.91
2022-08-09T08:30:00.129Z,1032.89
2022-08-09T08:40:00.245Z,1032.92
2022-08-09T08:50:02.470Z,1032.91
2022-08-09T09:00:00.135Z,1032.96
2022-08-09T09:10:02.965Z,1032.98
2022-08-09T09:20:01.124Z,1033.02
2022-08-09T09:40:00.825Z,1032.89
2022-08-09T09:50:07.621Z,1032.86
2022-08-09T10:00:00.098Z,1032.84
2022-08-09T10:10:03.026Z,1032.82
2022-08-09T10:20:00.382Z,1032.72
2022-08-09T10:30:16.397Z,1032.60
2022-08-09T10:40:00.216Z,1032.59
2022-08-09T10:50:00.153Z,1032.47
2022-08-09T11:00:01.517Z,1032.45
2022-08-09T11:10:00.134Z,1032.38
2022-08-09T11:20:07.594Z,1032.36
2022-08-09T11:30:01.190Z,1032.34
2022-08-09T11:40:00.237Z,1032.29
2022-08-09T11:50:52.199Z,1032.37
2022-08-09T12:00:00.106Z,1032.34
2022-08-09T12:10:00.132Z,1032.28
2022-08-09T12:20:01.461Z,1032.11
2022-08-09T12:30:04.498Z,1032.17
2022-08-09T12:40:00.147Z,1032.15
2022-08-09T12:50:00.182Z,1032.11
2022-08-09T13:00:03.577Z,1032.01
2022-08-09T13:10:00.208Z,1031.81
2022-08-09T13:20:08.106Z,1031.87
2022-08-09T13:30:03.390Z,1031.78
2022-08-09T13:41:21.421Z,1031.79
2022-08-09T13:50:01.172Z,1031.78
2022-08-09T14:00:00.124Z,1031.76
2022-08-09T14:10:00.150Z,1031.71
2022-08-09T14:20:00.117Z,1031.59
2022-08-09T14:30:18.890Z,1031.50
2022-08-09T14:40:00.292Z,1031.57
2022-08-09T14:50:01.715Z,1031.60
2022-08-09T15:00:00.066Z,1031.65
2022-08-09T15:10:04.185Z,1031.58
2022-08-09T15:20:02.593Z,1031.56
2022-08-09T15:30:47.747Z,1031.62
2022-08-09T15:40:00.175Z,1031.57
2022-08-09T15:50:00.951Z,1031.47
2022-08-09T16:00:00.139Z,1031.43
2022-08-09T16:10:02.415Z,1031.43
2022-08-09T16:20:04.324Z,1031.39
2022-08-09T16:30:01.237Z,1031.41
2022-08-09T16:40:05.168Z,1031.39
2022-08-09T16:50:30.906Z,1031.34
2022-08-09T17:00:00.126Z,1031.33
2022-08-09T17:10:02.057Z,1031.44
2022-08-09T17:20:29.619Z,1031.52
2022-08-09T17:30:00.104Z,1031.55
2022-08-09T17:40:00.222Z,1031.65
2022-08-09T17:50:07.598Z,1031.78
2022-08-09T18:00:05.252Z,1031.79
2022-08-09T18:10:04.083Z,1031.86
2022-08-09T18:20:53.363Z,1031.89
2022-08-09T18:30:36.927Z,1032.02
2022-08-09T18:40:00.150Z,1032.11
2022-08-09T18:50:03.071Z,1032.13
2022-08-09T19:00:03.791Z,1032.19
2022-08-09T19:10:13.596Z,1032.38
2022-08-09T19:20:00.964Z,1032.47
2022-08-09T19:30:21.811Z,1032.49
2022-08-09T19:40:02.754Z,1032.53
2022-08-09T19:50:04.914Z,1032.65
2022-08-09T20:00:05.993Z,1032.68
2022-08-09T20:10:06.706Z,1032.70
2022-08-09T20:20:00.114Z,1032.82
2022-08-09T20:30:00.114Z,1032.85
2022-08-09T20:40:14.631Z,1032.87
2022-08-09T20:50:00.159Z,1032.85
2022-08-09T21:00:19.761Z,1032.94
2022-08-09T21:10:01.197Z,1032.99
2022-08-09T21:20:04.772Z,1033.00
2022-08-09T21:30:01.253Z,1033.14
2022-08-09T21:40:00.278Z,1033.18
2022-08-09T21:50:01.279Z,1033.12
2022-08-09T22:00:00.092Z,1033.11
2022-08-09T22:10:01.373Z,1033.19
2022-08-09T22:20:00.733Z,1033.17
2022-08-09T22:30:00.133Z,1033.18
2022-08-09T22:40:00.214Z,1033.23
2022-08-09T22:50:00.125Z,1033.29
2022-08-09T23:00:00.127Z,1033.26
2022-08-09T23:10:00.119Z,1033.28
2022-08-09T23:20:01.331Z,1033.35
2022-08-09T23:30:00.160Z,1033.33
2022-08-09T23:40:00.136Z,1033.35
2022-08-09T23:50:00.131Z,1033.40
